Terminal Aerodrome Forecast
Issued by NWS

Home | Current Version | Previous Version | Text Only | Print | Product List | Glossary On
Versions: 1 2 3 4 5 6 7 8 9 10 11 12 13 14 15 16 17 18 19 20 21 22 23 24 25 26 27 28
877
FTUS43 KDVN 301734
TAFCID
TAF
KCID 301734Z 3018/3118 05005KT P6SM VCSH SCT024 BKN035
      TEMPO 3019/3022 6SM -SHRA BR BKN024
     FM310100 07003KT P6SM FEW024 SCT035
     FM310900 09003KT 4SM BR FEW080
     FM311500 13004KT 6SM BR BKN035=

USA.gov is the U.S. government's official web portal to all federal, state and local government web resources and services.